createdAt,value
2018-12-13T00:00:51.619Z,102123.21
2018-12-13T00:01:57.081Z,102121.05
2018-12-13T00:03:02.537Z,102118.40
2018-12-13T00:04:08.034Z,102130.16
2018-12-13T00:05:13.482Z,102119.30
2018-12-13T00:06:19.260Z,102120.92
2018-12-13T00:07:24.778Z,102124.13
2018-12-13T00:08:30.253Z,102122.09
2018-12-13T00:09:35.666Z,102121.03
2018-12-13T00:10:41.154Z,102119.11
2018-12-13T00:11:46.655Z,102121.70
2018-12-13T00:12:52.034Z,102121.86
2018-12-13T00:13:57.422Z,102121.93
2018-12-13T00:15:02.876Z,102118.14
2018-12-13T00:16:08.361Z,102116.29
2018-12-13T00:17:14.004Z,102115.44
2018-12-13T00:18:19.518Z,102115.94
2018-12-13T00:19:24.916Z,102120.69
2018-12-13T00:20:30.350Z,102115.95
2018-12-13T00:21:35.985Z,102116.91
2018-12-13T00:22:41.665Z,102111.06
2018-12-13T00:23:47.327Z,102108.95
2018-12-13T00:24:52.719Z,102111.20
2018-12-13T00:25:58.143Z,102111.42
2018-12-13T00:27:03.587Z,102108.48
2018-12-13T00:28:09.175Z,102108.79
2018-12-13T00:29:14.640Z,102102.94
2018-12-13T00:30:20.038Z,102100.36
2018-12-13T00:31:25.442Z,102096.03
2018-12-13T00:32:31.363Z,102100.25
2018-12-13T00:33:36.887Z,102099.35
2018-12-13T00:34:42.406Z,102098.50
2018-12-13T00:35:47.830Z,102095.97
2018-12-13T00:36:53.374Z,102095.08
2018-12-13T00:37:59.042Z,102094.94
2018-12-13T00:39:05.654Z,102095.84
2018-12-13T00:40:11.368Z,102095.35
2018-12-13T00:41:16.793Z,102090.51
2018-12-13T00:42:22.507Z,102087.08
2018-12-13T00:43:28.839Z,102085.87
2018-12-13T00:44:34.476Z,102090.51
2018-12-13T00:45:39.962Z,102091.72
2018-12-13T00:46:45.387Z,102097.19
2018-12-13T00:47:51.644Z,102090.41
2018-12-13T00:48:57.144Z,102091.48
2018-12-13T00:50:02.705Z,102083.96
2018-12-13T00:51:08.158Z,102088.59
2018-12-13T00:52:13.604Z,102088.13
2018-12-13T00:53:18.982Z,102086.23
2018-12-13T00:54:24.527Z,102088.39
2018-12-13T00:55:29.912Z,102084.39
2018-12-13T00:56:35.500Z,102084.03
2018-12-13T00:57:40.919Z,102080.17
2018-12-13T00:58:46.392Z,102078.91
2018-12-13T00:59:51.874Z,102074.67
2018-12-13T01:01:01.325Z,102078.83
2018-12-13T01:02:06.880Z,102074.92
2018-12-13T01:03:12.298Z,102078.46
2018-12-13T01:04:17.723Z,102081.82
2018-12-13T01:05:23.098Z,102075.58
2018-12-13T01:06:29.347Z,102080.32
2018-12-13T01:07:37.198Z,102075.73
2018-12-13T01:08:42.720Z,102080.01
2018-12-13T01:09:49.775Z,102085.59
2018-12-13T01:10:55.272Z,102081.37
2018-12-13T01:12:00.881Z,102083.12
2018-12-13T01:13:06.290Z,102079.75
2018-12-13T01:14:11.880Z,102082.75
2018-12-13T01:15:17.343Z,102076.81
2018-12-13T01:16:24.931Z,102080.70
2018-12-13T01:17:30.390Z,102078.67
2018-12-13T01:18:35.881Z,102071.45
2018-12-13T01:19:41.472Z,102074.98
2018-12-13T01:20:46.943Z,102072.55
2018-12-13T01:21:52.339Z,102075.45
2018-12-13T01:22:57.743Z,102075.45
2018-12-13T01:24:03.232Z,102079.31
2018-12-13T01:25:08.791Z,102074.67
2018-12-13T01:26:14.252Z,102079.77
2018-12-13T01:27:19.660Z,102070.08
2018-12-13T01:28:25.108Z,102075.39
2018-12-13T01:29:30.540Z,102076.66
2018-12-13T01:30:36.205Z,102067.50
2018-12-13T01:31:41.640Z,102080.86
2018-12-13T01:32:47.156Z,102072.98
2018-12-13T01:33:52.547Z,102088.03
2018-12-13T01:34:57.933Z,102081.77
2018-12-13T01:36:03.436Z,102091.72
2018-12-13T01:37:08.951Z,102081.71
2018-12-13T01:38:14.534Z,102078.34
2018-12-13T01:39:19.976Z,102081.45
2018-12-13T01:40:25.327Z,102079.88
2018-12-13T01:41:30.747Z,102078.15
2018-12-13T01:42:36.317Z,102076.98
2018-12-13T01:43:41.857Z,102084.88
2018-12-13T01:44:47.365Z,102070.92
2018-12-13T01:45:52.831Z,102075.00
2018-12-13T01:46:58.218Z,102069.14
2018-12-13T01:48:03.882Z,102069.14
2018-12-13T01:49:09.361Z,102072.56
2018-12-13T01:50:14.816Z,102069.98
2018-12-13T01:51:20.410Z,102073.73
2018-12-13T01:52:25.862Z,102071.62
2018-12-13T01:53:31.313Z,102070.42
2018-12-13T01:54:36.758Z,102071.42
2018-12-13T01:55:42.191Z,102069.46
2018-12-13T01:56:47.723Z,102073.42
2018-12-13T01:57:53.159Z,102064.84
2018-12-13T01:58:58.576Z,102068.63
2018-12-13T02:00:04.649Z,102064.10
2018-12-13T02:01:10.107Z,102064.10
2018-12-13T02:02:15.567Z,102067.09
2018-12-13T02:03:20.986Z,102057.78
2018-12-13T02:04:26.456Z,102061.99
2018-12-13T02:05:31.828Z,102063.47
2018-12-13T02:06:37.304Z,102058.40
2018-12-13T02:07:42.738Z,102059.83
2018-12-13T02:08:48.263Z,102061.94
2018-12-13T02:09:53.710Z,102064.52
2018-12-13T02:10:59.167Z,102058.81
2018-12-13T02:12:04.563Z,102058.35
2018-12-13T02:13:10.101Z,102058.91
2018-12-13T02:14:15.691Z,102058.59
2018-12-13T02:15:21.231Z,102055.55
2018-12-13T02:16:26.619Z,102057.19
2018-12-13T02:17:32.026Z,102056.45
2018-12-13T02:18:37.529Z,102056.96
2018-12-13T02:19:43.115Z,102065.45
2018-12-13T02:20:48.611Z,102065.45
2018-12-13T02:21:54.195Z,102065.17
2018-12-13T02:22:59.611Z,102061.05
2018-12-13T02:24:05.199Z,102062.80
2018-12-13T02:25:10.730Z,102057.83
2018-12-13T02:26:16.283Z,102060.78
2018-12-13T02:27:21.818Z,102060.36
2018-12-13T02:28:27.274Z,102055.83
2018-12-13T02:29:32.819Z,102060.41
2018-12-13T02:30:38.340Z,102063.70
2018-12-13T02:31:43.786Z,102059.53
2018-12-13T02:32:49.570Z,102058.27
2018-12-13T02:33:55.100Z,102055.73
2018-12-13T02:35:00.627Z,102063.31
2018-12-13T02:36:06.100Z,102068.05
2018-12-13T02:37:11.629Z,102064.96
2018-12-13T02:38:17.137Z,102068.75
2018-12-13T02:39:22.568Z,102065.80
2018-12-13T02:40:28.040Z,102059.85
2018-12-13T02:41:33.770Z,102065.52
2018-12-13T02:42:39.243Z,102059.85
2018-12-13T02:43:44.677Z,102061.53
2018-12-13T02:44:50.188Z,102060.45
2018-12-13T02:45:55.609Z,102058.55
2018-12-13T02:47:01.027Z,102055.88
2018-12-13T02:48:06.403Z,102056.86
2018-12-13T02:49:11.808Z,102053.11
2018-12-13T02:50:17.496Z,102056.03
2018-12-13T02:51:22.891Z,102055.17
2018-12-13T02:52:28.297Z,102046.69
2018-12-13T02:53:33.765Z,102049.69
2018-12-13T02:54:39.127Z,102050.16
2018-12-13T02:55:44.566Z,102049.27
2018-12-13T02:56:49.963Z,102047.82
2018-12-13T02:57:55.579Z,102043.69
2018-12-13T02:59:01.566Z,102042.80
2018-12-13T03:00:07.307Z,102040.78
2018-12-13T03:01:12.827Z,102045.05
2018-12-13T03:02:18.335Z,102043.59
2018-12-13T03:03:23.768Z,102044.33
2018-12-13T03:04:29.188Z,102042.93
2018-12-13T03:05:34.582Z,102044.19
2018-12-13T03:06:39.970Z,102039.55
2018-12-13T03:07:45.446Z,102035.19
2018-12-13T03:08:50.975Z,102046.42
2018-12-13T03:09:56.492Z,102047.11
2018-12-13T03:11:01.919Z,102041.59
2018-12-13T03:12:07.428Z,102038.65
2018-12-13T03:13:12.865Z,102036.92
2018-12-13T03:14:18.335Z,102034.39
2018-12-13T03:15:23.772Z,102034.28
2018-12-13T03:16:29.247Z,102030.58
2018-12-13T03:17:34.613Z,102033.54
2018-12-13T03:18:40.058Z,102032.28
2018-12-13T03:19:45.509Z,102029.27
2018-12-13T03:20:51.090Z,102029.17
2018-12-13T03:21:56.595Z,102022.48
2018-12-13T03:23:01.995Z,102021.27
2018-12-13T03:24:07.388Z,102022.80
2018-12-13T03:25:12.963Z,102018.75
2018-12-13T03:26:18.665Z,102025.48
2018-12-13T03:27:24.057Z,102016.39
2018-12-13T03:28:29.522Z,102015.54
2018-12-13T03:29:34.911Z,102015.91
2018-12-13T03:30:40.424Z,102017.58
2018-12-13T03:31:45.835Z,102018.38
2018-12-13T03:32:51.335Z,102017.53
2018-12-13T03:33:56.854Z,102017.48
2018-12-13T03:35:02.306Z,102011.05
2018-12-13T03:36:07.691Z,102010.59
2018-12-13T03:37:14.441Z,102009.80
2018-12-13T03:38:20.711Z,102007.16
2018-12-13T03:39:26.128Z,102008.16
2018-12-13T03:40:31.547Z,102006.02
2018-12-13T03:41:36.984Z,102012.84
2018-12-13T03:42:42.516Z,102014.27
2018-12-13T03:43:47.920Z,102011.31
2018-12-13T03:44:53.344Z,102015.91
2018-12-13T03:45:58.711Z,102010.73
2018-12-13T03:47:04.147Z,102012.42
2018-12-13T03:48:09.617Z,102014.16
2018-12-13T03:49:15.081Z,102002.20
2018-12-13T03:50:20.505Z,102008.31
2018-12-13T03:51:25.873Z,102011.05
2018-12-13T03:52:31.461Z,102008.36
2018-12-13T03:53:36.911Z,102006.93
2018-12-13T03:54:42.405Z,102003.94
2018-12-13T03:55:47.759Z,102000.92
2018-12-13T03:56:53.154Z,101996.30
2018-12-13T03:57:58.556Z,101992.13
2018-12-13T03:59:04.057Z,101989.63
2018-12-13T04:00:09.697Z,101998.88
2018-12-13T04:01:15.099Z,102001.36
2018-12-13T04:02:20.649Z,101998.09
2018-12-13T04:03:26.035Z,101998.30
2018-12-13T04:04:31.539Z,102000.98
2018-12-13T04:05:36.930Z,102003.09
2018-12-13T04:06:42.390Z,102002.26
2018-12-13T04:07:48.042Z,102006.46
2018-12-13T04:08:53.468Z,101998.52
2018-12-13T04:09:58.878Z,102002.19
2018-12-13T04:11:04.486Z,101997.66
2018-12-13T04:12:09.941Z,102002.19
2018-12-13T04:13:15.583Z,101998.83
2018-12-13T04:14:20.987Z,101994.67
2018-12-13T04:15:26.373Z,101997.67
2018-12-13T04:16:31.807Z,101991.67
2018-12-13T04:17:37.383Z,101990.36
2018-12-13T04:18:42.863Z,101991.19
2018-12-13T04:19:48.478Z,101994.04
2018-12-13T04:20:54.003Z,101990.56
2018-12-13T04:22:01.819Z,101992.34
2018-12-13T04:23:07.314Z,101986.60
2018-12-13T04:24:12.892Z,101991.11
2018-12-13T04:25:18.370Z,101989.02
2018-12-13T04:26:23.827Z,101989.48
2018-12-13T04:27:29.211Z,101995.39
2018-12-13T04:28:34.615Z,101991.86
2018-12-13T04:29:40.002Z,101988.12
2018-12-13T04:30:45.417Z,101987.22
2018-12-13T04:31:50.892Z,101988.73
2018-12-13T04:32:56.248Z,101997.89
2018-12-13T04:34:01.730Z,101991.14
2018-12-13T04:35:07.483Z,101994.16
2018-12-13T04:36:13.563Z,101993.66
2018-12-13T04:37:19.134Z,101991.09
2018-12-13T04:38:24.576Z,101990.31
2018-12-13T04:39:30.042Z,101989.83
2018-12-13T04:40:35.443Z,101989.83
2018-12-13T04:41:40.881Z,101986.04
2018-12-13T04:42:46.332Z,101987.25
2018-12-13T04:43:51.786Z,101983.95
2018-12-13T04:44:57.332Z,101984.72
2018-12-13T04:46:02.838Z,101986.76
2018-12-13T04:47:08.236Z,101981.60
2018-12-13T04:48:13.677Z,101979.08
2018-12-13T04:49:19.074Z,101986.66
2018-12-13T04:50:24.539Z,101979.75
2018-12-13T04:51:29.949Z,101977.59
2018-12-13T04:52:35.421Z,101977.12
2018-12-13T04:53:40.858Z,101980.44
2018-12-13T04:54:46.421Z,101982.33
2018-12-13T04:55:51.896Z,101978.17
2018-12-13T04:56:57.319Z,101976.75
2018-12-13T04:58:02.762Z,101979.09
2018-12-13T04:59:08.201Z,101979.95
2018-12-13T05:00:13.832Z,101980.00
2018-12-13T05:01:19.270Z,101976.47
2018-12-13T05:02:24.649Z,101974.90
2018-12-13T05:03:30.049Z,101973.74
2018-12-13T05:04:35.517Z,101973.33
2018-12-13T05:05:40.970Z,101973.22
2018-12-13T05:06:46.346Z,101975.80
2018-12-13T05:07:51.819Z,101966.60
2018-12-13T05:08:57.236Z,101972.27
2018-12-13T05:10:02.704Z,101965.94
2018-12-13T05:11:08.166Z,101967.81
2018-12-13T05:12:13.563Z,101966.13
2018-12-13T05:13:19.332Z,101965.66
2018-12-13T05:14:24.750Z,101965.06
2018-12-13T05:15:30.270Z,101965.59
2018-12-13T05:16:35.719Z,101956.18
2018-12-13T05:17:41.290Z,101965.02
2018-12-13T05:18:46.658Z,101965.53
2018-12-13T05:19:52.102Z,101962.48
2018-12-13T05:20:57.519Z,101965.12
2018-12-13T05:22:02.955Z,101967.17
2018-12-13T05:23:08.581Z,101960.78
2018-12-13T05:24:14.034Z,101960.01
2018-12-13T05:25:19.434Z,101964.63
2018-12-13T05:26:24.859Z,101962.15
2018-12-13T05:27:30.268Z,101964.92
2018-12-13T05:28:35.671Z,101963.06
2018-12-13T05:29:41.076Z,101965.77
2018-12-13T05:30:46.494Z,101964.41
2018-12-13T05:31:52.244Z,101964.34
2018-12-13T05:32:57.744Z,101965.02
2018-12-13T05:34:03.182Z,101958.81
2018-12-13T05:35:08.703Z,101964.63
2018-12-13T05:36:14.124Z,101961.53
2018-12-13T05:37:19.556Z,101962.84
2018-12-13T05:38:24.939Z,101958.70
2018-12-13T05:39:30.442Z,101959.06
2018-12-13T05:40:35.939Z,101961.40
2018-12-13T05:41:41.578Z,101960.27
2018-12-13T05:42:47.120Z,101958.95
2018-12-13T05:43:54.499Z,101958.76
2018-12-13T05:45:00.006Z,101959.17
2018-12-13T05:46:05.392Z,101955.75
2018-12-13T05:47:10.820Z,101966.98
2018-12-13T05:48:16.264Z,101956.35
2018-12-13T05:49:21.705Z,101964.28
2018-12-13T05:50:27.135Z,101961.34
2018-12-13T05:51:32.610Z,101958.87
2018-12-13T05:52:38.019Z,101964.00
2018-12-13T05:53:43.504Z,101964.66
2018-12-13T05:54:49.024Z,101963.81
2018-12-13T05:55:54.438Z,101965.19
2018-12-13T05:56:59.909Z,101962.96
2018-12-13T05:58:05.505Z,101971.13
2018-12-13T05:59:11.211Z,101971.55
2018-12-13T06:00:16.615Z,101972.81
2018-12-13T06:01:22.136Z,101976.48
2018-12-13T06:02:27.527Z,101971.98
2018-12-13T06:03:32.988Z,101972.34
2018-12-13T06:04:38.538Z,101977.25
2018-12-13T06:05:43.960Z,101973.16
2018-12-13T06:06:49.371Z,101975.41
2018-12-13T06:07:55.225Z,101967.59
2018-12-13T06:09:01.039Z,101976.17
2018-12-13T06:10:07.239Z,101974.73
2018-12-13T06:11:12.782Z,101968.45
2018-12-13T06:12:18.186Z,101967.35
2018-12-13T06:13:23.654Z,101978.23
2018-12-13T06:14:29.111Z,101975.03
2018-12-13T06:15:34.548Z,101968.72
2018-12-13T06:16:40.247Z,101966.88
2018-12-13T06:17:45.664Z,101969.63
2018-12-13T06:18:51.256Z,101968.42
2018-12-13T06:19:56.679Z,101966.22
2018-12-13T06:21:02.087Z,101967.46
2018-12-13T06:22:07.581Z,101970.72
2018-12-13T06:23:13.048Z,101960.86
2018-12-13T06:24:18.615Z,101965.32
2018-12-13T06:25:24.058Z,101967.19
2018-12-13T06:26:29.523Z,101973.84
2018-12-13T06:27:35.147Z,101964.00
2018-12-13T06:28:40.623Z,101968.14
2018-12-13T06:29:48.830Z,101966.39
2018-12-13T06:30:53.508Z,101962.84
2018-12-13T06:31:58.979Z,101960.88
2018-12-13T06:33:04.443Z,101959.67
2018-12-13T06:34:10.028Z,101966.03
2018-12-13T06:35:15.474Z,101966.58
2018-12-13T06:36:20.931Z,101969.88
2018-12-13T06:37:26.399Z,101971.38
2018-12-13T06:38:31.885Z,101969.16
2018-12-13T06:39:37.305Z,101971.12
2018-12-13T06:40:42.804Z,101969.28
2018-12-13T06:41:48.192Z,101971.12
2018-12-13T06:42:53.655Z,101969.62
2018-12-13T06:43:59.131Z,101966.94
2018-12-13T06:45:05.078Z,101967.84
2018-12-13T06:46:10.535Z,101966.94
2018-12-13T06:47:16.082Z,101966.52
2018-12-13T06:48:21.468Z,101967.95
2018-12-13T06:49:26.991Z,101973.55
2018-12-13T06:50:32.450Z,101967.95
2018-12-13T06:51:37.896Z,101975.58
2018-12-13T06:52:43.321Z,101968.09
2018-12-13T06:53:48.728Z,101977.27
2018-12-13T06:54:54.151Z,101975.94
2018-12-13T06:55:59.622Z,101973.00
2018-12-13T06:57:05.101Z,101973.41
2018-12-13T06:58:10.551Z,101969.88
2018-12-13T06:59:15.995Z,101967.90
2018-12-13T07:00:21.396Z,101967.35
2018-12-13T07:01:26.921Z,101968.31
2018-12-13T07:02:32.399Z,101973.47
2018-12-13T07:03:37.790Z,101972.95
2018-12-13T07:04:43.332Z,101971.19
2018-12-13T07:05:48.759Z,101972.51
2018-12-13T07:06:54.204Z,101975.99
2018-12-13T07:07:59.610Z,101975.22
2018-12-13T07:09:07.696Z,101980.02
2018-12-13T07:10:13.132Z,101970.83
2018-12-13T07:11:18.550Z,101984.41
2018-12-13T07:12:24.012Z,101986.33
2018-12-13T07:13:29.443Z,101987.17
2018-12-13T07:14:34.881Z,101986.57
2018-12-13T07:15:40.327Z,101984.34
2018-12-13T07:16:45.720Z,101984.16
2018-12-13T07:17:51.155Z,101985.55
2018-12-13T07:18:56.636Z,101980.13
2018-12-13T07:20:02.093Z,101986.15
2018-12-13T07:21:07.515Z,101988.19
2018-12-13T07:22:12.935Z,101987.39
2018-12-13T07:23:18.351Z,101983.30
2018-12-13T07:24:23.841Z,101986.20
2018-12-13T07:25:29.349Z,101985.84
2018-12-13T07:26:34.895Z,101991.95
2018-12-13T07:27:40.294Z,101989.48
2018-12-13T07:28:45.733Z,101995.38
2018-12-13T07:29:51.242Z,101994.38
2018-12-13T07:30:56.736Z,101988.42
2018-12-13T07:32:02.182Z,101986.49
2018-12-13T07:33:07.863Z,101986.85
2018-12-13T07:34:13.259Z,101986.80
2018-12-13T07:35:18.643Z,101991.47
2018-12-13T07:36:24.072Z,101989.63
2018-12-13T07:37:29.480Z,102000.14
2018-12-13T07:38:34.899Z,101991.72
2018-12-13T07:39:40.290Z,101990.29
2018-12-13T07:40:45.943Z,101992.81
2018-12-13T07:41:51.489Z,101980.86
2018-12-13T07:42:56.919Z,101989.80
2018-12-13T07:44:02.371Z,101985.61
2018-12-13T07:45:08.036Z,101987.11
2018-12-13T07:46:13.455Z,101994.55
2018-12-13T07:47:18.956Z,101992.94
2018-12-13T07:48:24.355Z,101999.98
2018-12-13T07:49:29.963Z,101997.38
2018-12-13T07:50:35.369Z,101995.23
2018-12-13T07:51:40.803Z,101996.78
2018-12-13T07:52:46.182Z,102003.77
2018-12-13T07:53:51.690Z,101996.61
2018-12-13T07:54:57.259Z,101996.78
2018-12-13T07:56:02.725Z,101996.78
2018-12-13T07:57:08.176Z,102004.78
2018-12-13T07:58:13.763Z,101999.19
2018-12-13T07:59:19.376Z,101996.80
2018-12-13T08:00:25.185Z,101997.44
2018-12-13T08:01:30.614Z,101990.16
2018-12-13T08:02:36.190Z,101993.48
2018-12-13T08:03:41.584Z,101991.20
2018-12-13T08:04:46.989Z,101985.72
2018-12-13T08:05:52.489Z,101981.64
2018-12-13T08:06:58.029Z,101983.20
2018-12-13T08:08:03.612Z,101975.77
2018-12-13T08:09:10.596Z,101968.12
2018-12-13T08:10:16.033Z,101978.16
2018-12-13T08:11:21.583Z,101974.97
2018-12-13T08:12:27.026Z,101973.96
2018-12-13T08:13:32.439Z,101976.73
2018-12-13T08:14:37.850Z,101975.98
2018-12-13T08:15:43.243Z,101977.33
2018-12-13T08:16:48.682Z,101979.00
2018-12-13T08:17:54.179Z,101982.59
2018-12-13T08:18:59.707Z,101981.63
2018-12-13T08:20:06.380Z,101979.19
2018-12-13T08:21:11.771Z,101980.55
2018-12-13T08:22:17.192Z,101988.08
2018-12-13T08:23:22.615Z,101981.41
2018-12-13T08:24:28.011Z,101982.83
2018-12-13T08:25:33.470Z,101986.20
2018-12-13T08:26:38.970Z,101983.84
2018-12-13T08:27:44.464Z,101980.11
2018-12-13T08:28:49.866Z,101981.39
2018-12-13T08:29:55.331Z,101976.86
2018-12-13T08:31:00.833Z,101977.51
2018-12-13T08:32:06.351Z,101979.56
2018-12-13T08:33:11.842Z,101975.88
2018-12-13T08:34:17.339Z,101970.37
2018-12-13T08:35:22.798Z,101972.25
2018-12-13T08:36:28.202Z,101969.80
2018-12-13T08:37:33.665Z,101969.44
2018-12-13T08:38:39.082Z,101968.23
2018-12-13T08:39:44.517Z,101968.28
2018-12-13T08:40:50.234Z,101969.19
2018-12-13T08:41:55.838Z,101968.02
2018-12-13T08:43:01.424Z,101972.34
2018-12-13T08:44:07.813Z,101973.77
2018-12-13T08:45:13.318Z,101966.88
2018-12-13T08:46:18.784Z,101976.19
2018-12-13T08:47:24.222Z,101973.72
2018-12-13T08:48:29.652Z,101982.19
2018-12-13T08:49:35.110Z,101988.98
2018-12-13T08:50:40.648Z,101985.41
2018-12-13T08:51:46.226Z,101976.20
2018-12-13T08:52:51.710Z,101986.41
2018-12-13T08:53:57.131Z,101984.27
2018-12-13T08:55:02.533Z,101986.47
2018-12-13T08:56:07.958Z,101984.46
2018-12-13T08:57:13.504Z,101980.20
2018-12-13T08:58:19.066Z,101987.89
2018-12-13T08:59:24.450Z,101987.62
2018-12-13T09:00:29.937Z,101979.99
2018-12-13T09:01:35.442Z,101986.94
2018-12-13T09:02:40.875Z,101985.99
2018-12-13T09:03:46.384Z,101987.79
2018-12-13T09:04:51.786Z,101986.20
2018-12-13T09:05:57.168Z,101987.20
2018-12-13T09:07:02.633Z,101987.67
2018-12-13T09:08:08.080Z,101995.69
2018-12-13T09:09:13.561Z,101991.94
2018-12-13T09:10:19.014Z,101995.73
2018-12-13T09:11:24.375Z,101988.31
2018-12-13T09:12:29.804Z,101989.25
2018-12-13T09:13:35.254Z,101990.09
2018-12-13T09:14:40.691Z,101996.78
2018-12-13T09:15:46.179Z,101985.87
2018-12-13T09:16:51.604Z,101991.41
2018-12-13T09:17:57.005Z,101990.62
2018-12-13T09:19:02.431Z,101993.00
2018-12-13T09:20:08.222Z,101991.88
2018-12-13T09:21:13.604Z,101990.66
2018-12-13T09:22:19.180Z,101989.30
2018-12-13T09:23:24.571Z,101988.57
2018-12-13T09:24:30.026Z,101993.29
2018-12-13T09:25:35.441Z,101990.88
2018-12-13T09:26:40.896Z,101989.23
2018-12-13T09:27:46.315Z,101987.17
2018-12-13T09:28:51.736Z,101986.13
2018-12-13T09:29:57.139Z,101989.82
2018-12-13T09:31:02.647Z,101983.98
2018-12-13T09:32:08.019Z,101993.30
2018-12-13T09:33:13.425Z,101986.97
2018-12-13T09:34:18.816Z,101986.13
2018-12-13T09:35:24.207Z,101986.98
2018-12-13T09:36:29.638Z,101993.29
2018-12-13T09:37:35.571Z,101991.56
2018-12-13T09:38:40.999Z,101986.50
2018-12-13T09:39:46.514Z,101995.52
2018-12-13T09:40:51.927Z,101991.86
2018-12-13T09:41:57.322Z,101997.66
2018-12-13T09:43:02.794Z,101996.13
2018-12-13T09:45:26.587Z,101996.00
2018-12-13T09:46:32.134Z,102006.97
2018-12-13T09:47:37.530Z,101999.01
2018-12-13T09:48:43.004Z,102002.98
2018-12-13T09:49:48.403Z,101996.34
2018-12-13T09:50:53.861Z,101997.61
2018-12-13T09:51:59.283Z,101996.63
2018-12-13T09:53:04.695Z,102001.17
2018-12-13T09:54:10.112Z,102006.69
2018-12-13T09:55:15.487Z,102005.75
2018-12-13T09:56:20.907Z,102001.43
2018-12-13T09:57:26.432Z,102003.49
2018-12-13T09:58:31.865Z,102003.70
2018-12-13T09:59:37.364Z,101996.50
2018-12-13T10:00:42.854Z,101998.14
2018-12-13T10:01:48.252Z,102001.93
2018-12-13T10:02:54.310Z,101996.50
2018-12-13T10:03:59.764Z,101997.45
2018-12-13T10:05:05.875Z,101999.56
2018-12-13T10:06:11.262Z,101992.86
2018-12-13T10:07:16.696Z,101989.61
2018-12-13T10:08:22.068Z,101989.34
2018-12-13T10:09:27.517Z,101986.06
2018-12-13T10:10:32.918Z,101987.38
2018-12-13T10:11:38.364Z,101987.75
2018-12-13T10:12:43.934Z,101989.45
2018-12-13T10:13:49.336Z,101987.42
2018-12-13T10:14:54.787Z,101981.15
2018-12-13T10:16:00.203Z,101989.86
2018-12-13T10:17:05.672Z,101988.55
2018-12-13T10:18:11.336Z,101989.70
2018-12-13T10:19:16.760Z,101977.81
2018-12-13T10:20:22.427Z,101980.01
2018-12-13T10:21:27.857Z,101982.44
2018-12-13T10:22:33.256Z,101978.23
2018-12-13T10:23:38.918Z,101976.92
2018-12-13T10:24:44.326Z,101987.59
2018-12-13T10:25:49.726Z,101974.16
2018-12-13T10:26:55.360Z,101985.08
2018-12-13T10:28:00.851Z,101977.22
2018-12-13T10:29:06.378Z,101980.96
2018-12-13T10:30:12.009Z,101970.14
2018-12-13T10:31:17.379Z,101976.41
2018-12-13T10:32:22.738Z,101975.67
2018-12-13T10:33:28.151Z,101973.94
2018-12-13T10:34:33.595Z,101975.77
2018-12-13T10:35:39.233Z,101974.55
2018-12-13T10:36:44.646Z,101975.77
2018-12-13T10:37:50.052Z,101973.72
2018-12-13T10:38:55.454Z,101970.48
2018-12-13T10:40:00.879Z,101964.63
2018-12-13T10:41:06.412Z,101966.32
2018-12-13T10:42:11.888Z,101965.99
2018-12-13T10:43:17.323Z,101963.97
2018-12-13T10:44:28.159Z,101961.96
2018-12-13T10:45:33.610Z,101964.41
2018-12-13T10:46:39.323Z,101954.00
2018-12-13T10:47:44.747Z,101954.00
2018-12-13T10:48:50.320Z,101958.22
2018-12-13T10:49:55.955Z,101951.60
2018-12-13T10:51:01.493Z,101954.19
2018-12-13T10:52:07.192Z,101952.54
2018-12-13T10:53:12.669Z,101953.76
2018-12-13T10:54:18.131Z,101953.43
2018-12-13T10:55:23.550Z,101956.34
2018-12-13T10:56:29.150Z,101957.70
2018-12-13T10:57:34.694Z,101946.86
2018-12-13T10:58:40.207Z,101952.34
2018-12-13T10:59:45.728Z,101951.17
2018-12-13T11:01:58.143Z,101946.53
2018-12-13T11:03:23.738Z,101945.48
2018-12-13T11:04:29.335Z,101939.41
2018-12-13T11:05:34.794Z,101944.14
2018-12-13T11:06:40.237Z,101946.29
2018-12-13T11:07:46.141Z,101945.91
2018-12-13T11:08:51.676Z,101942.08
2018-12-13T11:09:57.127Z,101940.89
2018-12-13T11:11:02.623Z,101939.59
2018-12-13T11:12:08.099Z,101942.53
2018-12-13T11:13:13.526Z,101936.62
2018-12-13T11:14:19.292Z,101938.70
2018-12-13T11:15:24.833Z,101931.48
2018-12-13T11:16:30.275Z,101931.91
2018-12-13T11:17:35.683Z,101925.63
2018-12-13T11:18:41.151Z,101919.25
2018-12-13T11:19:46.841Z,101925.66
2018-12-13T11:20:52.347Z,101916.25
2018-12-13T11:21:57.859Z,101917.09
2018-12-13T11:23:03.410Z,101915.45
2018-12-13T11:24:08.830Z,101912.58
2018-12-13T11:25:14.474Z,101920.47
2018-12-13T11:26:19.919Z,101910.85
2018-12-13T11:30:44.362Z,101910.89
2018-12-13T11:31:49.854Z,101909.67
2018-12-13T11:32:55.330Z,101906.77
2018-12-13T11:34:00.741Z,101907.27
2018-12-13T11:35:06.195Z,101901.88
2018-12-13T11:36:11.696Z,101907.14
2018-12-13T11:37:17.120Z,101903.30
2018-12-13T11:38:22.478Z,101901.23
2018-12-13T11:39:28.011Z,101904.48
2018-12-13T11:40:34.031Z,101896.62
2018-12-13T11:41:39.477Z,101900.39
2018-12-13T11:42:44.886Z,101899.62
2018-12-13T11:43:50.461Z,101902.67
2018-12-13T11:44:55.991Z,101898.02
2018-12-13T11:46:01.571Z,101893.00
2018-12-13T11:47:07.082Z,101898.98
2018-12-13T11:48:12.698Z,101902.02
2018-12-13T11:49:18.149Z,101898.61
2018-12-13T11:50:23.751Z,101896.58
2018-12-13T11:51:29.201Z,101898.81
2018-12-13T11:52:34.648Z,101898.89
2018-12-13T11:53:41.351Z,101891.45
2018-12-13T11:54:47.019Z,101890.14
2018-12-13T11:55:52.943Z,101890.14
2018-12-13T11:56:58.402Z,101895.41
2018-12-13T11:58:07.623Z,101891.30
2018-12-13T11:59:13.433Z,101889.98
2018-12-13T12:00:18.839Z,101894.30
2018-12-13T12:01:24.419Z,101888.69
2018-12-13T12:02:29.888Z,101894.63
2018-12-13T12:03:35.331Z,101893.37
2018-12-13T12:04:40.901Z,101894.75
2018-12-13T12:05:46.292Z,101891.45
2018-12-13T12:06:51.947Z,101892.29
2018-12-13T12:07:57.551Z,101893.52
2018-12-13T12:10:25.338Z,101890.22
2018-12-13T12:11:30.844Z,101888.48
2018-12-13T12:12:36.308Z,101882.16
2018-12-13T12:13:41.874Z,101889.38
2018-12-13T12:14:47.260Z,101886.34
2018-12-13T12:15:52.704Z,101885.88
2018-12-13T12:16:58.232Z,101883.27
2018-12-13T12:18:03.717Z,101878.31
2018-12-13T12:19:09.156Z,101881.27
2018-12-13T12:20:14.741Z,101883.69
2018-12-13T12:21:21.376Z,101882.08
2018-12-13T12:22:26.819Z,101882.50
2018-12-13T12:23:32.428Z,101882.04
2018-12-13T12:24:37.790Z,101892.59
2018-12-13T12:25:43.284Z,101885.42
2018-12-13T12:26:48.747Z,101888.30
2018-12-13T12:27:54.255Z,101877.82
2018-12-13T12:28:59.715Z,101877.86
2018-12-13T12:30:06.282Z,101884.19
2018-12-13T12:31:11.690Z,101878.17
2018-12-13T12:32:17.117Z,101877.86
2018-12-13T12:33:22.559Z,101880.31
2018-12-13T12:34:28.100Z,101883.19
2018-12-13T12:35:33.536Z,101870.06